CYPR - Prince Rupert

Pirep is a free, collaborative database of all public and private airports located within the United States. All pilots are welcome to contribute, edit, and improve any airport they have local knowledge about, no registration required.
Are you familiar with this airport? Help out other pilots by adding your local knowledge.
Uploaded photos will be licensed under a CC BY-SA 4.0 license. Please only upload photos you have the rights to use.
Tags
Public
Undocu­mented
METAR / TAF
Webcam
Edit Tags
Food
Camping
Lodging
Car Rental
Bicycles
Swimming
Golfing
Fishing
Hot Springs
Museum
Flying Clubs
Airpark
Upcoming Events
No upcoming events. Is anything happening here soon?
*
*
*

Where exactly on/near the airport is this event taking place?

Is there a webpage with more information for this event?

Who should be contacted for more information?

What is this event all about?

Repeat every
Description
Transient Parking
Fuel Location
Landing & Tie-down Fees
Crew Car Availability
Flying Clubs
WiFi Access
Airport Statistics
Location: Prince Rupert, CN
Elevation: 116ft
Sectional: Ketchikan
Activation date: Mar 2005
Fuel: A1 (prices)
Runway 13/31: 6,000ft
Access: Open to the public
Current Weather — MVFR
  • Weather data is strictly informational and not for flight planning purposes.
  • METAR
    2024-05-29 10:12:00 PDT
    Ceiling Wind Temperature Dewpoint Weather Visbility
    2,200ft 180° @ 6kt 48°F 44°F N/A 9SM
    Clouds: Scattered @ 1,200ft, Broken @ 2,200ft, Broken @ 9,100ft
    Raw: CYPR 291712Z AUTO 18006KT 130V200 9SM SCT012 BKN022 BKN091 09/07 A3018 RMK SLP223
  • TAF
    2024-05-29 06:00:00 PDT – 2024-05-29 11:00:00 PDT
    Ceiling Wind Weather Visbility
    3,000ft 140° @ 6kt N/A 6SM
    Clouds: Scattered @ 2,000ft, Broken @ 3,000ft, Overcast @ 6,000ft
    Raw: TAF CYPR 291240Z 2913/3001 14006KT P6SM SCT020 BKN030 OVC060 TEMPO 2913/2918 5SM -SHRA BR SCT008 OVC020 FM291800 24008KT P6SM BKN040 RMK FCST BASED ON AUTO OBS. NXT FCST BY 291900Z
  • TAF
    2024-05-29 06:00:00 PDT – 2024-05-29 11:00:00 PDT
    Ceiling Wind Weather Visbility
    2,000ft ° @ kt Light rain showers, mist 5SM
    Clouds: Scattered @ 800ft, Overcast @ 2,000ft
    Raw: TAF CYPR 291240Z 2913/3001 14006KT P6SM SCT020 BKN030 OVC060 TEMPO 2913/2918 5SM -SHRA BR SCT008 OVC020 FM291800 24008KT P6SM BKN040 RMK FCST BASED ON AUTO OBS. NXT FCST BY 291900Z
  • TAF
    2024-05-29 11:00:00 PDT – 2024-05-29 18:00:00 PDT
    Ceiling Wind Weather Visbility
    4,000ft 240° @ 8kt N/A 6SM
    Clouds: Broken @ 4,000ft
    Raw: TAF CYPR 291240Z 2913/3001 14006KT P6SM SCT020 BKN030 OVC060 TEMPO 2913/2918 5SM -SHRA BR SCT008 OVC020 FM291800 24008KT P6SM BKN040 RMK FCST BASED ON AUTO OBS. NXT FCST BY 291900Z
Click/tap to add an annotation marker to the map
Direct links to live image URLs will be displayed inline on this page. URLs to separate webpages will be linked to.
URL:
Direct links to live image URLs will be displayed inline on this page. URLs to separate webpages will be linked to.
URL:
Comments
Leave a comment What was your experience like at this airport?